Long Grove, Illinois
Current Conditions -  °F | °C
As of 2:52 AM on Wednesday 22 Oct 2014 (Local Time) from KPWK Reporting Station
Overcast Overcast  
Wind Chill:   Ceiling: 2900
Heat Index:   Visibility: 10mi
Dew Point:   Wind: 6mph
Humidity: 77%   Direction: 310°NW
Pressure: 30.29"   Gusts: NA
Location:  42.18°N, 88°W
Report Text: KPWK 220752Z AUTO 31005KT 10SM OVC029 08/04 A3029 RMK AO2 SLP260 T00830044
Loading
Personal Weather Stations






























Interactive Weather Map
Tropical Storm Tracking
New forecast layout! Learn more

10-Day Weather Forecast

Advertisements
Track Severe Weather on mobile